sensor_id;sensor_type;location;lat;lon;timestamp;temperature;humidity
10543;DHT22;5320;50.046;10.314;2022-10-16T00:01:36;16.20;99.90
10543;DHT22;5320;50.046;10.314;2022-10-16T00:04:03;16.20;99.90
10543;DHT22;5320;50.046;10.314;2022-10-16T00:06:30;16.10;99.90
10543;DHT22;5320;50.046;10.314;2022-10-16T00:08:56;16.10;99.90
10543;DHT22;5320;50.046;10.314;2022-10-16T00:11:28;16.10;99.90
10543;DHT22;5320;50.046;10.314;2022-10-16T00:13:57;16.10;99.90
10543;DHT22;5320;50.046;10.314;2022-10-16T00:16:23;16.10;99.90
10543;DHT22;5320;50.046;10.314;2022-10-16T00:18:49;16.10;99.90
10543;DHT22;5320;50.046;10.314;2022-10-16T00:21:20;16.10;99.90
10543;DHT22;5320;50.046;10.314;2022-10-16T00:23:49;16.10;99.90
10543;DHT22;5320;50.046;10.314;2022-10-16T00:26:16;16.10;99.90
10543;DHT22;5320;50.046;10.314;2022-10-16T00:28:42;16.10;99.90
10543;DHT22;5320;50.046;10.314;2022-10-16T00:31:11;16.00;99.90
10543;DHT22;5320;50.046;10.314;2022-10-16T00:33:39;16.10;99.90
10543;DHT22;5320;50.046;10.314;2022-10-16T00:36:05;16.10;99.90
10543;DHT22;5320;50.046;10.314;2022-10-16T00:38:32;16.10;99.90
10543;DHT22;5320;50.046;10.314;2022-10-16T00:40:58;16.10;99.90
10543;DHT22;5320;50.046;10.314;2022-10-16T00:46:35;16.10;99.90
10543;DHT22;5320;50.046;10.314;2022-10-16T00:49:08;16.00;99.90
10543;DHT22;5320;50.046;10.314;2022-10-16T00:51:40;16.00;99.90
10543;DHT22;5320;50.046;10.314;2022-10-16T00:54:10;16.00;99.90
10543;DHT22;5320;50.046;10.314;2022-10-16T00:56:37;16.00;99.90
10543;DHT22;5320;50.046;10.314;2022-10-16T00:59:16;16.00;99.90
10543;DHT22;5320;50.046;10.314;2022-10-16T01:01:43;15.90;99.90
10543;DHT22;5320;50.046;10.314;2022-10-16T01:04:09;15.90;99.90
10543;DHT22;5320;50.046;10.314;2022-10-16T01:06:59;15.90;99.90
10543;DHT22;5320;50.046;10.314;2022-10-16T01:15:00;15.80;99.90
10543;DHT22;5320;50.046;10.314;2022-10-16T01:17:58;15.80;99.90
10543;DHT22;5320;50.046;10.314;2022-10-16T01:20:37;15.80;99.90
10543;DHT22;5320;50.046;10.314;2022-10-16T01:28:15;15.80;99.90
10543;DHT22;5320;50.046;10.314;2022-10-16T01:30:43;15.80;99.90
10543;DHT22;5320;50.046;10.314;2022-10-16T01:33:37;15.80;99.90
10543;DHT22;5320;50.046;10.314;2022-10-16T01:36:11;15.80;99.90
10543;DHT22;5320;50.046;10.314;2022-10-16T01:38:40;15.80;99.90
10543;DHT22;5320;50.046;10.314;2022-10-16T01:41:26;15.80;99.90
10543;DHT22;5320;50.046;10.314;2022-10-16T01:44:17;15.80;99.90
10543;DHT22;5320;50.046;10.314;2022-10-16T01:46:46;15.80;99.90
10543;DHT22;5320;50.046;10.314;2022-10-16T01:49:14;15.80;99.90
10543;DHT22;5320;50.046;10.314;2022-10-16T01:51:45;15.80;99.90
10543;DHT22;5320;50.046;10.314;2022-10-16T01:54:13;15.80;99.90
10543;DHT22;5320;50.046;10.314;2022-10-16T01:56:41;15.80;99.90
10543;DHT22;5320;50.046;10.314;2022-10-16T01:59:13;15.80;99.90
10543;DHT22;5320;50.046;10.314;2022-10-16T02:01:42;15.80;99.90
10543;DHT22;5320;50.046;10.314;2022-10-16T02:04:20;15.80;99.90
10543;DHT22;5320;50.046;10.314;2022-10-16T02:06:46;15.80;99.90
10543;DHT22;5320;50.046;10.314;2022-10-16T02:09:12;15.80;99.90
10543;DHT22;5320;50.046;10.314;2022-10-16T02:11:41;15.80;99.90
10543;DHT22;5320;50.046;10.314;2022-10-16T02:14:07;15.80;99.90
10543;DHT22;5320;50.046;10.314;2022-10-16T02:16:41;15.80;99.90
10543;DHT22;5320;50.046;10.314;2022-10-16T02:19:07;15.70;99.90
10543;DHT22;5320;50.046;10.314;2022-10-16T02:21:40;15.70;99.90
10543;DHT22;5320;50.046;10.314;2022-10-16T02:24:31;15.70;99.90
10543;DHT22;5320;50.046;10.314;2022-10-16T02:30:15;15.70;99.90
10543;DHT22;5320;50.046;10.314;2022-10-16T02:32:46;15.60;99.90
10543;DHT22;5320;50.046;10.314;2022-10-16T02:35:18;15.60;99.90
10543;DHT22;5320;50.046;10.314;2022-10-16T02:37:46;15.50;99.90
10543;DHT22;5320;50.046;10.314;2022-10-16T02:40:12;15.50;99.90
10543;DHT22;5320;50.046;10.314;2022-10-16T02:42:40;15.50;99.90
10543;DHT22;5320;50.046;10.314;2022-10-16T02:45:07;15.50;99.90
10543;DHT22;5320;50.046;10.314;2022-10-16T02:47:33;15.50;99.90
10543;DHT22;5320;50.046;10.314;2022-10-16T02:49:59;15.50;99.90
10543;DHT22;5320;50.046;10.314;2022-10-16T02:52:26;15.50;99.90
10543;DHT22;5320;50.046;10.314;2022-10-16T02:54:52;15.60;99.90
10543;DHT22;5320;50.046;10.314;2022-10-16T02:57:18;15.60;99.90
10543;DHT22;5320;50.046;10.314;2022-10-16T02:59:44;15.60;99.90
10543;DHT22;5320;50.046;10.314;2022-10-16T03:02:10;15.60;99.90
10543;DHT22;5320;50.046;10.314;2022-10-16T03:04:36;15.60;99.90
10543;DHT22;5320;50.046;10.314;2022-10-16T03:07:02;15.70;99.90
10543;DHT22;5320;50.046;10.314;2022-10-16T03:09:28;15.60;99.90
10543;DHT22;5320;50.046;10.314;2022-10-16T03:11:54;15.70;99.90
10543;DHT22;5320;50.046;10.314;2022-10-16T03:14:19;15.70;99.90
10543;DHT22;5320;50.046;10.314;2022-10-16T03:16:45;15.70;99.90
10543;DHT22;5320;50.046;10.314;2022-10-16T03:19:11;15.70;99.90
10543;DHT22;5320;50.046;10.314;2022-10-16T03:21:37;15.70;99.90
10543;DHT22;5320;50.046;10.314;2022-10-16T03:24:02;15.70;99.90
10543;DHT22;5320;50.046;10.314;2022-10-16T03:26:28;15.70;99.90
10543;DHT22;5320;50.046;10.314;2022-10-16T03:28:54;15.70;99.90
10543;DHT22;5320;50.046;10.314;2022-10-16T03:31:20;15.70;99.90
10543;DHT22;5320;50.046;10.314;2022-10-16T03:33:46;15.70;99.90
10543;DHT22;5320;50.046;10.314;2022-10-16T03:36:11;15.70;99.90
10543;DHT22;5320;50.046;10.314;2022-10-16T03:38:37;15.70;99.90
10543;DHT22;5320;50.046;10.314;2022-10-16T03:41:03;15.70;99.90
10543;DHT22;5320;50.046;10.314;2022-10-16T03:43:29;15.70;99.90
10543;DHT22;5320;50.046;10.314;2022-10-16T03:45:55;15.80;99.90
10543;DHT22;5320;50.046;10.314;2022-10-16T03:48:21;15.80;99.90
10543;DHT22;5320;50.046;10.314;2022-10-16T03:50:49;15.80;99.90
10543;DHT22;5320;50.046;10.314;2022-10-16T03:53:16;15.80;99.90
10543;DHT22;5320;50.046;10.314;2022-10-16T03:55:42;15.80;99.90
10543;DHT22;5320;50.046;10.314;2022-10-16T03:58:08;15.80;99.90
10543;DHT22;5320;50.046;10.314;2022-10-16T04:00:34;15.80;99.90
10543;DHT22;5320;50.046;10.314;2022-10-16T04:03:01;15.80;99.90
10543;DHT22;5320;50.046;10.314;2022-10-16T04:05:27;15.90;99.90
10543;DHT22;5320;50.046;10.314;2022-10-16T04:07:54;15.80;99.90
10543;DHT22;5320;50.046;10.314;2022-10-16T04:10:20;15.80;99.90
10543;DHT22;5320;50.046;10.314;2022-10-16T04:12:46;15.70;99.90
10543;DHT22;5320;50.046;10.314;2022-10-16T04:15:12;15.60;99.90
10543;DHT22;5320;50.046;10.314;2022-10-16T04:17:39;15.60;99.90
10543;DHT22;5320;50.046;10.314;2022-10-16T04:20:05;15.60;99.90
10543;DHT22;5320;50.046;10.314;2022-10-16T04:22:31;15.60;99.90
10543;DHT22;5320;50.046;10.314;2022-10-16T04:24:57;15.60;99.90
10543;DHT22;5320;50.046;10.314;2022-10-16T04:27:22;15.50;99.90
10543;DHT22;5320;50.046;10.314;2022-10-16T04:29:48;15.50;99.90
10543;DHT22;5320;50.046;10.314;2022-10-16T04:32:14;15.50;99.90
10543;DHT22;5320;50.046;10.314;2022-10-16T04:34:40;15.50;99.90
10543;DHT22;5320;50.046;10.314;2022-10-16T04:37:06;15.50;99.90
10543;DHT22;5320;50.046;10.314;2022-10-16T04:39:32;15.50;99.90
10543;DHT22;5320;50.046;10.314;2022-10-16T04:41:58;15.50;99.90
10543;DHT22;5320;50.046;10.314;2022-10-16T04:44:24;15.50;99.90
10543;DHT22;5320;50.046;10.314;2022-10-16T04:46:51;15.50;99.90
10543;DHT22;5320;50.046;10.314;2022-10-16T04:49:16;15.50;99.90
10543;DHT22;5320;50.046;10.314;2022-10-16T04:51:42;15.50;99.90
10543;DHT22;5320;50.046;10.314;2022-10-16T04:54:09;15.50;99.90
10543;DHT22;5320;50.046;10.314;2022-10-16T04:56:41;15.50;99.90
10543;DHT22;5320;50.046;10.314;2022-10-16T04:59:14;15.50;99.90
10543;DHT22;5320;50.046;10.314;2022-10-16T05:01:40;15.50;99.90
10543;DHT22;5320;50.046;10.314;2022-10-16T05:04:05;15.60;99.90
10543;DHT22;5320;50.046;10.314;2022-10-16T05:06:31;15.60;99.90
10543;DHT22;5320;50.046;10.314;2022-10-16T05:08:57;15.60;99.90
10543;DHT22;5320;50.046;10.314;2022-10-16T05:11:23;15.70;99.90
10543;DHT22;5320;50.046;10.314;2022-10-16T05:13:48;15.70;99.90
10543;DHT22;5320;50.046;10.314;2022-10-16T05:16:14;15.80;99.90
10543;DHT22;5320;50.046;10.314;2022-10-16T05:18:40;15.80;99.90
10543;DHT22;5320;50.046;10.314;2022-10-16T05:21:09;15.80;99.90
10543;DHT22;5320;50.046;10.314;2022-10-16T05:23:35;15.70;99.90
10543;DHT22;5320;50.046;10.314;2022-10-16T05:26:01;15.80;99.90
10543;DHT22;5320;50.046;10.314;2022-10-16T05:28:28;15.70;99.90
10543;DHT22;5320;50.046;10.314;2022-10-16T05:30:56;15.80;99.90
10543;DHT22;5320;50.046;10.314;2022-10-16T05:33:24;15.80;99.90
10543;DHT22;5320;50.046;10.314;2022-10-16T05:35:50;15.80;99.90
10543;DHT22;5320;50.046;10.314;2022-10-16T05:38:18;15.80;99.90
10543;DHT22;5320;50.046;10.314;2022-10-16T05:40:50;15.90;99.90
10543;DHT22;5320;50.046;10.314;2022-10-16T05:43:15;15.90;99.90
10543;DHT22;5320;50.046;10.314;2022-10-16T05:45:41;15.90;99.90
10543;DHT22;5320;50.046;10.314;2022-10-16T05:48:07;15.90;99.90
10543;DHT22;5320;50.046;10.314;2022-10-16T05:50:33;16.00;99.90
10543;DHT22;5320;50.046;10.314;2022-10-16T05:52:59;16.00;99.90
10543;DHT22;5320;50.046;10.314;2022-10-16T05:55:25;16.00;99.90
10543;DHT22;5320;50.046;10.314;2022-10-16T05:57:53;16.00;99.90
10543;DHT22;5320;50.046;10.314;2022-10-16T06:00:19;16.00;99.90
10543;DHT22;5320;50.046;10.314;2022-10-16T06:02:44;16.00;99.90
10543;DHT22;5320;50.046;10.314;2022-10-16T06:05:10;15.90;99.90
10543;DHT22;5320;50.046;10.314;2022-10-16T06:07:36;16.00;99.90
10543;DHT22;5320;50.046;10.314;2022-10-16T06:10:03;15.90;99.90
10543;DHT22;5320;50.046;10.314;2022-10-16T06:12:29;15.90;99.90
10543;DHT22;5320;50.046;10.314;2022-10-16T06:14:55;16.00;99.90
10543;DHT22;5320;50.046;10.314;2022-10-16T06:17:21;16.00;99.90
10543;DHT22;5320;50.046;10.314;2022-10-16T06:19:47;16.10;99.90
10543;DHT22;5320;50.046;10.314;2022-10-16T06:22:12;16.10;99.90
10543;DHT22;5320;50.046;10.314;2022-10-16T06:24:38;16.10;99.90
10543;DHT22;5320;50.046;10.314;2022-10-16T06:27:04;16.10;99.90
10543;DHT22;5320;50.046;10.314;2022-10-16T06:29:30;16.10;99.90
10543;DHT22;5320;50.046;10.314;2022-10-16T06:31:56;16.10;99.90
10543;DHT22;5320;50.046;10.314;2022-10-16T06:34:22;16.10;99.90
10543;DHT22;5320;50.046;10.314;2022-10-16T06:36:47;16.10;99.90
10543;DHT22;5320;50.046;10.314;2022-10-16T06:39:13;16.10;99.90
10543;DHT22;5320;50.046;10.314;2022-10-16T06:41:39;16.10;99.90
10543;DHT22;5320;50.046;10.314;2022-10-16T06:44:06;16.10;99.90
10543;DHT22;5320;50.046;10.314;2022-10-16T06:46:33;16.10;99.90
10543;DHT22;5320;50.046;10.314;2022-10-16T06:48:59;16.20;99.90
10543;DHT22;5320;50.046;10.314;2022-10-16T06:51:25;16.10;99.90
10543;DHT22;5320;50.046;10.314;2022-10-16T06:53:54;16.10;99.90
10543;DHT22;5320;50.046;10.314;2022-10-16T06:56:26;16.10;99.90
10543;DHT22;5320;50.046;10.314;2022-10-16T06:58:53;16.10;99.90
10543;DHT22;5320;50.046;10.314;2022-10-16T07:01:21;16.10;99.90
10543;DHT22;5320;50.046;10.314;2022-10-16T07:03:47;16.10;99.90
10543;DHT22;5320;50.046;10.314;2022-10-16T07:06:17;16.10;99.90
10543;DHT22;5320;50.046;10.314;2022-10-16T07:08:46;16.20;99.90
10543;DHT22;5320;50.046;10.314;2022-10-16T07:11:15;16.20;99.90
10543;DHT22;5320;50.046;10.314;2022-10-16T07:13:45;16.20;99.90
10543;DHT22;5320;50.046;10.314;2022-10-16T07:16:14;16.20;99.90
10543;DHT22;5320;50.046;10.314;2022-10-16T07:18:41;16.20;99.90
10543;DHT22;5320;50.046;10.314;2022-10-16T07:21:11;16.20;99.90
10543;DHT22;5320;50.046;10.314;2022-10-16T07:23:38;16.30;99.90
10543;DHT22;5320;50.046;10.314;2022-10-16T07:26:05;16.30;99.90
10543;DHT22;5320;50.046;10.314;2022-10-16T07:28:31;16.40;99.90
10543;DHT22;5320;50.046;10.314;2022-10-16T07:31:06;16.40;99.90
10543;DHT22;5320;50.046;10.314;2022-10-16T07:33:33;16.40;99.90
10543;DHT22;5320;50.046;10.314;2022-10-16T07:35:59;16.40;99.90
10543;DHT22;5320;50.046;10.314;2022-10-16T07:38:25;16.40;99.90
10543;DHT22;5320;50.046;10.314;2022-10-16T07:41:05;16.40;99.90
10543;DHT22;5320;50.046;10.314;2022-10-16T07:43:31;16.40;99.90
10543;DHT22;5320;50.046;10.314;2022-10-16T07:45:57;16.40;99.90
10543;DHT22;5320;50.046;10.314;2022-10-16T07:48:28;16.50;99.90
10543;DHT22;5320;50.046;10.314;2022-10-16T07:50:58;16.50;99.90
10543;DHT22;5320;50.046;10.314;2022-10-16T07:53:25;16.50;99.90
10543;DHT22;5320;50.046;10.314;2022-10-16T07:55:51;16.50;99.90
10543;DHT22;5320;50.046;10.314;2022-10-16T07:58:16;16.50;99.90
10543;DHT22;5320;50.046;10.314;2022-10-16T08:00:42;16.50;99.90
10543;DHT22;5320;50.046;10.314;2022-10-16T08:03:08;16.50;99.90
10543;DHT22;5320;50.046;10.314;2022-10-16T08:05:34;16.60;99.90
10543;DHT22;5320;50.046;10.314;2022-10-16T08:08:01;16.60;99.90
10543;DHT22;5320;50.046;10.314;2022-10-16T08:10:28;16.60;99.90
10543;DHT22;5320;50.046;10.314;2022-10-16T08:12:54;16.60;99.90
10543;DHT22;5320;50.046;10.314;2022-10-16T08:15:20;16.60;99.90
10543;DHT22;5320;50.046;10.314;2022-10-16T08:18:04;16.70;99.90
10543;DHT22;5320;50.046;10.314;2022-10-16T08:20:31;16.70;99.90
10543;DHT22;5320;50.046;10.314;2022-10-16T08:22:57;16.70;99.90
10543;DHT22;5320;50.046;10.314;2022-10-16T08:25:24;16.70;99.90
10543;DHT22;5320;50.046;10.314;2022-10-16T08:27:50;16.70;99.90
10543;DHT22;5320;50.046;10.314;2022-10-16T08:30:18;16.80;99.90
10543;DHT22;5320;50.046;10.314;2022-10-16T08:32:44;16.80;99.90
10543;DHT22;5320;50.046;10.314;2022-10-16T08:35:11;16.90;99.90
10543;DHT22;5320;50.046;10.314;2022-10-16T08:37:38;17.00;99.90
10543;DHT22;5320;50.046;10.314;2022-10-16T08:40:05;17.00;99.90
10543;DHT22;5320;50.046;10.314;2022-10-16T08:45:25;17.00;99.90
10543;DHT22;5320;50.046;10.314;2022-10-16T08:48:16;17.10;99.90
10543;DHT22;5320;50.046;10.314;2022-10-16T08:50:44;17.10;99.90
10543;DHT22;5320;50.046;10.314;2022-10-16T08:53:29;17.20;99.90
10543;DHT22;5320;50.046;10.314;2022-10-16T08:55:56;17.30;99.90
10543;DHT22;5320;50.046;10.314;2022-10-16T08:58:29;17.40;99.90
10543;DHT22;5320;50.046;10.314;2022-10-16T09:01:04;17.50;99.90
10543;DHT22;5320;50.046;10.314;2022-10-16T09:06:08;17.80;99.90
10543;DHT22;5320;50.046;10.314;2022-10-16T09:17:27;18.00;99.90
10543;DHT22;5320;50.046;10.314;2022-10-16T09:22:54;18.00;99.90
10543;DHT22;5320;50.046;10.314;2022-10-16T09:25:24;18.00;99.90
10543;DHT22;5320;50.046;10.314;2022-10-16T09:27:53;18.00;99.90
10543;DHT22;5320;50.046;10.314;2022-10-16T09:30:20;18.00;99.90
10543;DHT22;5320;50.046;10.314;2022-10-16T09:32:50;18.00;99.90
10543;DHT22;5320;50.046;10.314;2022-10-16T09:38:03;17.90;99.90
10543;DHT22;5320;50.046;10.314;2022-10-16T09:40:34;17.90;99.90
10543;DHT22;5320;50.046;10.314;2022-10-16T09:45:29;18.00;99.90
10543;DHT22;5320;50.046;10.314;2022-10-16T09:47:55;18.00;99.90
10543;DHT22;5320;50.046;10.314;2022-10-16T09:50:28;18.10;99.90
10543;DHT22;5320;50.046;10.314;2022-10-16T09:53:05;18.10;99.90
10543;DHT22;5320;50.046;10.314;2022-10-16T09:55:31;18.10;99.90
10543;DHT22;5320;50.046;10.314;2022-10-16T09:57:57;18.00;99.90
10543;DHT22;5320;50.046;10.314;2022-10-16T10:00:24;18.00;99.90
10543;DHT22;5320;50.046;10.314;2022-10-16T10:02:50;18.00;99.90
10543;DHT22;5320;50.046;10.314;2022-10-16T10:05:21;17.90;99.90
10543;DHT22;5320;50.046;10.314;2022-10-16T10:07:58;17.80;99.90
10543;DHT22;5320;50.046;10.314;2022-10-16T10:10:27;17.70;99.90
10543;DHT22;5320;50.046;10.314;2022-10-16T10:12:54;17.70;99.90
10543;DHT22;5320;50.046;10.314;2022-10-16T10:15:21;17.70;99.90
10543;DHT22;5320;50.046;10.314;2022-10-16T10:17:54;17.60;99.90
10543;DHT22;5320;50.046;10.314;2022-10-16T10:20:29;17.50;99.90
10543;DHT22;5320;50.046;10.314;2022-10-16T10:22:56;17.40;99.90
10543;DHT22;5320;50.046;10.314;2022-10-16T10:25:53;17.40;99.90
10543;DHT22;5320;50.046;10.314;2022-10-16T10:28:28;17.40;99.90
10543;DHT22;5320;50.046;10.314;2022-10-16T10:31:06;17.30;99.90
10543;DHT22;5320;50.046;10.314;2022-10-16T10:34:01;17.30;99.90
10543;DHT22;5320;50.046;10.314;2022-10-16T10:36:39;17.20;99.90
10543;DHT22;5320;50.046;10.314;2022-10-16T10:39:07;17.10;99.90
10543;DHT22;5320;50.046;10.314;2022-10-16T10:42:02;16.90;99.90
10543;DHT22;5320;50.046;10.314;2022-10-16T10:44:57;16.90;99.90
10543;DHT22;5320;50.046;10.314;2022-10-16T10:47:47;16.90;99.90
10543;DHT22;5320;50.046;10.314;2022-10-16T10:50:31;16.80;99.90
10543;DHT22;5320;50.046;10.314;2022-10-16T10:55:44;16.90;99.90
10543;DHT22;5320;50.046;10.314;2022-10-16T11:01:07;17.00;99.90
10543;DHT22;5320;50.046;10.314;2022-10-16T11:06:43;17.20;99.90
10543;DHT22;5320;50.046;10.314;2022-10-16T11:09:20;17.30;99.90
10543;DHT22;5320;50.046;10.314;2022-10-16T11:11:56;17.40;99.90
10543;DHT22;5320;50.046;10.314;2022-10-16T11:14:26;17.40;99.90
10543;DHT22;5320;50.046;10.314;2022-10-16T11:19:31;17.60;99.90
10543;DHT22;5320;50.046;10.314;2022-10-16T11:22:25;17.60;99.90
10543;DHT22;5320;50.046;10.314;2022-10-16T11:30:57;18.00;99.90
10543;DHT22;5320;50.046;10.314;2022-10-16T11:33:41;18.20;99.90
10543;DHT22;5320;50.046;10.314;2022-10-16T11:41:53;18.80;99.90
10543;DHT22;5320;50.046;10.314;2022-10-16T11:50:25;20.20;99.90
10543;DHT22;5320;50.046;10.314;2022-10-16T11:55:40;20.70;99.90
10543;DHT22;5320;50.046;10.314;2022-10-16T11:58:23;20.80;99.90
10543;DHT22;5320;50.046;10.314;2022-10-16T12:03:44;20.80;99.90
10543;DHT22;5320;50.046;10.314;2022-10-16T12:08:59;20.80;99.90
10543;DHT22;5320;50.046;10.314;2022-10-16T12:16:50;20.70;99.90
10543;DHT22;5320;50.046;10.314;2022-10-16T12:19:17;21.00;99.90
10543;DHT22;5320;50.046;10.314;2022-10-16T12:21:43;21.10;99.90
10543;DHT22;5320;50.046;10.314;2022-10-16T12:24:38;21.00;99.90
10543;DHT22;5320;50.046;10.314;2022-10-16T12:30:04;21.10;99.90
10543;DHT22;5320;50.046;10.314;2022-10-16T12:32:36;21.10;99.90
10543;DHT22;5320;50.046;10.314;2022-10-16T12:35:04;20.80;99.90
10543;DHT22;5320;50.046;10.314;2022-10-16T12:37:34;20.80;99.90
10543;DHT22;5320;50.046;10.314;2022-10-16T12:40:32;21.00;99.90
10543;DHT22;5320;50.046;10.314;2022-10-16T12:42:59;20.80;99.90
10543;DHT22;5320;50.046;10.314;2022-10-16T12:47:54;21.10;99.90
10543;DHT22;5320;50.046;10.314;2022-10-16T12:50:38;21.20;99.90
10543;DHT22;5320;50.046;10.314;2022-10-16T12:56:04;21.40;99.90
10543;DHT22;5320;50.046;10.314;2022-10-16T12:58:49;21.30;99.90
10543;DHT22;5320;50.046;10.314;2022-10-16T13:01:48;21.20;99.90
10543;DHT22;5320;50.046;10.314;2022-10-16T13:04:28;21.30;99.90
10543;DHT22;5320;50.046;10.314;2022-10-16T13:10:00;21.40;99.90
10543;DHT22;5320;50.046;10.314;2022-10-16T13:12:54;21.50;99.90
10543;DHT22;5320;50.046;10.314;2022-10-16T13:24:02;20.70;99.90
10543;DHT22;5320;50.046;10.314;2022-10-16T13:29:07;20.80;99.90
10543;DHT22;5320;50.046;10.314;2022-10-16T13:31:33;20.80;99.90
10543;DHT22;5320;50.046;10.314;2022-10-16T13:34:00;20.80;99.90
10543;DHT22;5320;50.046;10.314;2022-10-16T13:36:28;21.20;99.90
10543;DHT22;5320;50.046;10.314;2022-10-16T13:39:14;21.20;99.90
10543;DHT22;5320;50.046;10.314;2022-10-16T13:41:40;21.50;99.90
10543;DHT22;5320;50.046;10.314;2022-10-16T13:44:16;21.70;99.90
10543;DHT22;5320;50.046;10.314;2022-10-16T13:46:44;21.80;99.90
10543;DHT22;5320;50.046;10.314;2022-10-16T13:49:15;22.10;99.90
10543;DHT22;5320;50.046;10.314;2022-10-16T13:51:41;22.40;99.90
10543;DHT22;5320;50.046;10.314;2022-10-16T13:54:18;21.90;99.90
10543;DHT22;5320;50.046;10.314;2022-10-16T13:56:44;21.90;99.90
10543;DHT22;5320;50.046;10.314;2022-10-16T13:59:33;21.90;99.90
10543;DHT22;5320;50.046;10.314;2022-10-16T14:02:00;22.20;99.90
10543;DHT22;5320;50.046;10.314;2022-10-16T14:04:33;22.20;99.90
10543;DHT22;5320;50.046;10.314;2022-10-16T14:06:59;21.90;99.90
10543;DHT22;5320;50.046;10.314;2022-10-16T14:09:27;21.60;99.90
10543;DHT22;5320;50.046;10.314;2022-10-16T14:12:13;21.20;99.90
10543;DHT22;5320;50.046;10.314;2022-10-16T14:14:44;20.90;99.90
10543;DHT22;5320;50.046;10.314;2022-10-16T14:17:24;20.90;99.90
10543;DHT22;5320;50.046;10.314;2022-10-16T14:19:54;20.80;99.90
10543;DHT22;5320;50.046;10.314;2022-10-16T14:24:58;20.70;99.90
10543;DHT22;5320;50.046;10.314;2022-10-16T14:27:33;20.70;99.90
10543;DHT22;5320;50.046;10.314;2022-10-16T14:30:27;20.80;99.90
10543;DHT22;5320;50.046;10.314;2022-10-16T14:33:02;20.80;99.90
10543;DHT22;5320;50.046;10.314;2022-10-16T14:35:36;20.80;99.90
10543;DHT22;5320;50.046;10.314;2022-10-16T14:38:04;20.70;99.90
10543;DHT22;5320;50.046;10.314;2022-10-16T14:40:36;20.70;99.90
10543;DHT22;5320;50.046;10.314;2022-10-16T14:43:03;20.70;99.90
10543;DHT22;5320;50.046;10.314;2022-10-16T14:45:32;20.70;99.90
10543;DHT22;5320;50.046;10.314;2022-10-16T14:48:01;20.60;99.90
10543;DHT22;5320;50.046;10.314;2022-10-16T14:50:28;20.50;99.90
10543;DHT22;5320;50.046;10.314;2022-10-16T14:52:55;20.50;99.90
10543;DHT22;5320;50.046;10.314;2022-10-16T14:55:21;20.50;99.90
10543;DHT22;5320;50.046;10.314;2022-10-16T14:57:48;20.50;99.90
10543;DHT22;5320;50.046;10.314;2022-10-16T15:00:20;20.50;99.90
10543;DHT22;5320;50.046;10.314;2022-10-16T15:02:49;20.50;99.90
10543;DHT22;5320;50.046;10.314;2022-10-16T15:05:21;20.50;99.90
10543;DHT22;5320;50.046;10.314;2022-10-16T15:07:48;20.60;99.90
10543;DHT22;5320;50.046;10.314;2022-10-16T15:10:16;20.60;99.90
10543;DHT22;5320;50.046;10.314;2022-10-16T15:12:43;20.60;99.90
10543;DHT22;5320;50.046;10.314;2022-10-16T15:17:54;20.60;99.90
10543;DHT22;5320;50.046;10.314;2022-10-16T15:20:26;20.60;99.90
10543;DHT22;5320;50.046;10.314;2022-10-16T15:22:52;20.50;99.90
10543;DHT22;5320;50.046;10.314;2022-10-16T15:25:51;20.50;99.90
10543;DHT22;5320;50.046;10.314;2022-10-16T15:28:19;20.40;99.90
10543;DHT22;5320;50.046;10.314;2022-10-16T15:30:46;20.40;99.90
10543;DHT22;5320;50.046;10.314;2022-10-16T15:33:18;20.30;99.90
10543;DHT22;5320;50.046;10.314;2022-10-16T15:35:50;20.30;99.90
10543;DHT22;5320;50.046;10.314;2022-10-16T15:38:17;20.20;99.90
10543;DHT22;5320;50.046;10.314;2022-10-16T15:40:43;20.20;99.90
10543;DHT22;5320;50.046;10.314;2022-10-16T15:43:11;20.10;99.90
10543;DHT22;5320;50.046;10.314;2022-10-16T15:45:37;20.00;99.90
10543;DHT22;5320;50.046;10.314;2022-10-16T15:48:04;20.00;99.90
10543;DHT22;5320;50.046;10.314;2022-10-16T15:50:30;20.00;99.90
10543;DHT22;5320;50.046;10.314;2022-10-16T15:52:56;19.90;99.90
10543;DHT22;5320;50.046;10.314;2022-10-16T15:55:23;19.80;99.90
10543;DHT22;5320;50.046;10.314;2022-10-16T15:57:49;19.80;99.90
10543;DHT22;5320;50.046;10.314;2022-10-16T16:00:18;19.70;99.90
10543;DHT22;5320;50.046;10.314;2022-10-16T16:02:51;19.70;99.90
10543;DHT22;5320;50.046;10.314;2022-10-16T16:05:18;19.60;99.90
10543;DHT22;5320;50.046;10.314;2022-10-16T16:07:44;19.60;99.90
10543;DHT22;5320;50.046;10.314;2022-10-16T16:10:11;19.70;99.90
10543;DHT22;5320;50.046;10.314;2022-10-16T16:12:40;19.70;99.90
10543;DHT22;5320;50.046;10.314;2022-10-16T16:15:07;19.70;99.90
10543;DHT22;5320;50.046;10.314;2022-10-16T16:17:34;19.70;99.90
10543;DHT22;5320;50.046;10.314;2022-10-16T16:20:00;19.70;99.90
10543;DHT22;5320;50.046;10.314;2022-10-16T16:22:27;19.70;99.90
10543;DHT22;5320;50.046;10.314;2022-10-16T16:24:53;19.60;99.90
10543;DHT22;5320;50.046;10.314;2022-10-16T16:27:19;19.50;99.90
10543;DHT22;5320;50.046;10.314;2022-10-16T16:29:46;19.50;99.90
10543;DHT22;5320;50.046;10.314;2022-10-16T16:32:12;19.40;99.90
10543;DHT22;5320;50.046;10.314;2022-10-16T16:34:38;19.40;99.90
10543;DHT22;5320;50.046;10.314;2022-10-16T16:37:04;19.30;99.90
10543;DHT22;5320;50.046;10.314;2022-10-16T16:39:29;19.20;99.90
10543;DHT22;5320;50.046;10.314;2022-10-16T16:41:57;19.10;99.90
10543;DHT22;5320;50.046;10.314;2022-10-16T16:44:24;19.10;99.90
10543;DHT22;5320;50.046;10.314;2022-10-16T16:46:50;19.10;99.90
10543;DHT22;5320;50.046;10.314;2022-10-16T16:49:15;19.10;99.90
10543;DHT22;5320;50.046;10.314;2022-10-16T16:51:41;19.10;99.90
10543;DHT22;5320;50.046;10.314;2022-10-16T16:54:08;19.10;99.90
10543;DHT22;5320;50.046;10.314;2022-10-16T16:56:34;19.10;99.90
10543;DHT22;5320;50.046;10.314;2022-10-16T16:59:01;19.10;99.90
10543;DHT22;5320;50.046;10.314;2022-10-16T17:01:27;19.00;99.90
10543;DHT22;5320;50.046;10.314;2022-10-16T17:03:54;19.00;99.90
10543;DHT22;5320;50.046;10.314;2022-10-16T17:06:23;19.00;99.90
10543;DHT22;5320;50.046;10.314;2022-10-16T17:08:50;18.90;99.90
10543;DHT22;5320;50.046;10.314;2022-10-16T17:11:19;18.90;99.90
10543;DHT22;5320;50.046;10.314;2022-10-16T17:13:45;18.90;99.90
10543;DHT22;5320;50.046;10.314;2022-10-16T17:16:11;18.90;99.90
10543;DHT22;5320;50.046;10.314;2022-10-16T17:18:38;18.90;99.90
10543;DHT22;5320;50.046;10.314;2022-10-16T17:21:07;18.80;99.90
10543;DHT22;5320;50.046;10.314;2022-10-16T17:23:33;18.70;99.90
10543;DHT22;5320;50.046;10.314;2022-10-16T17:26:17;18.70;99.90
10543;DHT22;5320;50.046;10.314;2022-10-16T17:28:44;18.60;99.90
10543;DHT22;5320;50.046;10.314;2022-10-16T17:33:37;18.60;99.90
10543;DHT22;5320;50.046;10.314;2022-10-16T17:36:03;18.60;99.90
10543;DHT22;5320;50.046;10.314;2022-10-16T17:38:29;18.60;99.90